createdAt,value
2019-05-22T00:04:37.923Z,78.20
2019-05-22T00:09:46.251Z,78.76
2019-05-22T00:14:53.057Z,78.71
2019-05-22T00:19:58.831Z,78.71
2019-05-22T00:25:05.457Z,78.92
2019-05-22T00:30:13.707Z,79.11
2019-05-22T00:35:21.957Z,78.96
2019-05-22T00:40:29.813Z,79.18
2019-05-22T00:45:36.967Z,79.17
2019-05-22T00:51:00.458Z,79.44
2019-05-22T00:56:17.182Z,79.16
2019-05-22T01:01:28.384Z,79.69
2019-05-22T01:06:35.909Z,79.78
2019-05-22T01:11:45.549Z,79.44
2019-05-22T01:16:52.907Z,79.80
2019-05-22T01:22:00.869Z,79.82
2019-05-22T01:27:08.833Z,79.74
2019-05-22T01:32:26.638Z,80.23
2019-05-22T01:37:31.930Z,80.11
2019-05-22T01:42:40.180Z,80.81
2019-05-22T01:47:53.254Z,80.60
2019-05-22T01:52:59.644Z,80.46
2019-05-22T01:58:06.126Z,80.70
2019-05-22T02:03:12.081Z,80.85
2019-05-22T02:08:18.172Z,80.85
2019-05-22T02:13:33.781Z,80.92
2019-05-22T02:18:42.056Z,80.63
2019-05-22T02:23:49.000Z,80.74
2019-05-22T02:28:55.707Z,80.55
2019-05-22T02:34:06.001Z,80.58
2019-05-22T02:39:15.794Z,80.57
2019-05-22T02:44:24.056Z,80.36
2019-05-22T02:49:31.265Z,80.59
2019-05-22T02:54:37.946Z,80.19
2019-05-22T02:59:43.924Z,80.22
2019-05-22T03:05:01.824Z,80.18
2019-05-22T03:10:09.599Z,80.24
2019-05-22T03:15:18.321Z,80.78
2019-05-22T03:20:26.437Z,80.41
2019-05-22T03:25:33.631Z,80.82
2019-05-22T03:30:43.107Z,80.73
2019-05-22T03:35:51.815Z,79.98
2019-05-22T03:40:58.028Z,79.92
2019-05-22T03:46:06.696Z,79.69
2019-05-22T03:51:15.298Z,79.51
2019-05-22T03:56:22.618Z,79.31
2019-05-22T04:01:29.162Z,79.45
2019-05-22T04:06:35.348Z,79.25
2019-05-22T04:11:43.891Z,79.26
2019-05-22T04:16:50.280Z,79.30
2019-05-22T04:21:56.884Z,79.01
2019-05-22T04:27:04.841Z,78.63
2019-05-22T04:32:13.237Z,78.82
2019-05-22T04:37:20.186Z,78.87
2019-05-22T04:42:27.511Z,78.54
2019-05-22T04:47:35.648Z,77.26
2019-05-22T04:52:42.250Z,77.61
2019-05-22T04:57:48.708Z,77.58
2019-05-22T05:02:54.221Z,77.74
2019-05-22T05:07:59.731Z,77.36
2019-05-22T05:13:05.219Z,78.32
2019-05-22T05:18:10.440Z,77.02
2019-05-22T05:23:15.931Z,77.63
2019-05-22T05:28:22.195Z,78.30
2019-05-22T05:33:31.164Z,78.29
2019-05-22T05:38:39.768Z,78.00
2019-05-22T05:43:45.302Z,77.62
2019-05-22T05:48:52.959Z,77.80
2019-05-22T05:54:10.971Z,77.90
2019-05-22T05:59:16.965Z,78.25
2019-05-22T06:04:34.616Z,77.44
2019-05-22T06:09:35.525Z,76.87
2019-05-22T06:14:41.575Z,76.67
2019-05-22T06:19:53.719Z,76.63
2019-05-22T06:25:02.896Z,76.43
2019-05-22T06:30:13.146Z,75.69
2019-05-22T06:35:19.077Z,76.62
2019-05-22T06:40:26.233Z,74.85
2019-05-22T06:45:35.523Z,74.46
2019-05-22T06:50:39.645Z,73.32
2019-05-22T06:55:45.309Z,74.86
2019-05-22T07:00:51.109Z,74.13
2019-05-22T07:05:57.303Z,75.05
2019-05-22T07:11:03.189Z,74.91
2019-05-22T07:16:08.875Z,74.86
2019-05-22T07:21:15.674Z,75.16
2019-05-22T07:26:20.974Z,74.18
2019-05-22T07:31:28.154Z,72.86
2019-05-22T07:36:34.423Z,71.22
2019-05-22T07:41:40.406Z,70.64
2019-05-22T07:46:46.555Z,69.62
2019-05-22T07:52:00.727Z,71.00
2019-05-22T07:57:00.471Z,70.14
2019-05-22T08:02:09.732Z,70.03
2019-05-22T08:07:17.943Z,68.72
2019-05-22T08:12:24.514Z,70.50
2019-05-22T08:17:30.937Z,69.37
2019-05-22T08:22:38.125Z,70.31
2019-05-22T08:27:44.143Z,68.50
2019-05-22T08:32:49.764Z,68.90
2019-05-22T08:37:56.962Z,68.55
2019-05-22T08:43:02.947Z,67.46
2019-05-22T08:48:08.784Z,68.39
2019-05-22T08:53:16.447Z,68.31
2019-05-22T08:58:23.526Z,68.41
2019-05-22T09:03:29.362Z,68.46
2019-05-22T09:08:35.273Z,67.23
2019-05-22T09:13:41.439Z,68.54
2019-05-22T09:18:47.262Z,68.86
2019-05-22T09:23:53.248Z,68.43
2019-05-22T09:28:59.204Z,67.34
2019-05-22T09:34:05.296Z,66.68
2019-05-22T09:39:12.425Z,66.79
2019-05-22T09:44:17.699Z,68.55
2019-05-22T09:49:24.158Z,67.70
2019-05-22T09:54:31.794Z,67.62
2019-05-22T09:59:37.202Z,68.75
2019-05-22T10:04:43.550Z,69.75
2019-05-22T10:09:48.991Z,66.59
2019-05-22T10:14:54.530Z,65.57
2019-05-22T10:20:00.325Z,66.05
2019-05-22T10:25:15.910Z,66.11
2019-05-22T10:30:16.877Z,65.77
2019-05-22T10:35:27.027Z,66.37
2019-05-22T10:40:33.505Z,66.69
2019-05-22T10:45:39.468Z,65.46
2019-05-22T10:50:44.896Z,65.17
2019-05-22T10:55:51.853Z,66.32
2019-05-22T11:00:58.035Z,67.31
2019-05-22T11:06:07.551Z,67.26
2019-05-22T11:11:17.361Z,66.91
2019-05-22T11:16:23.778Z,66.20
2019-05-22T11:21:29.140Z,65.79
2019-05-22T11:26:35.180Z,65.25
2019-05-22T11:31:40.829Z,65.05
2019-05-22T11:36:46.311Z,64.03
2019-05-22T11:41:52.181Z,64.04
2019-05-22T11:46:59.020Z,63.58
2019-05-22T11:52:05.662Z,63.04
2019-05-22T11:57:12.061Z,64.13
2019-05-22T12:02:18.932Z,62.21
2019-05-22T12:07:24.739Z,62.98
2019-05-22T12:12:35.178Z,62.22
2019-05-22T12:17:39.540Z,62.43
2019-05-22T12:22:44.976Z,63.73
2019-05-22T12:27:50.236Z,61.43
2019-05-22T12:32:57.122Z,62.40
2019-05-22T12:38:04.002Z,61.22
2019-05-22T12:43:11.557Z,61.59
2019-05-22T12:48:18.293Z,61.55
2019-05-22T12:53:24.781Z,59.53
2019-05-22T12:58:32.359Z,57.88
2019-05-22T13:03:40.190Z,54.74
2019-05-22T13:08:45.797Z,51.87
2019-05-22T13:13:51.854Z,48.44
2019-05-22T13:18:57.654Z,47.01
2019-05-22T13:24:05.971Z,45.94
2019-05-22T13:29:14.186Z,46.61
2019-05-22T13:34:20.621Z,47.26
2019-05-22T13:39:27.613Z,46.09
2019-05-22T13:44:32.872Z,46.39
2019-05-22T13:49:40.701Z,44.37
2019-05-22T13:54:46.530Z,47.73
2019-05-22T13:59:52.601Z,44.18
2019-05-22T14:04:59.810Z,43.95
2019-05-22T14:10:07.468Z,42.85
2019-05-22T14:15:13.380Z,41.31
2019-05-22T14:20:19.811Z,44.19
2019-05-22T14:25:26.161Z,44.42
2019-05-22T14:30:32.128Z,41.73
2019-05-22T14:35:48.117Z,40.34
2019-05-22T14:40:47.251Z,40.62
2019-05-22T14:45:52.799Z,38.67
2019-05-22T14:50:59.186Z,40.04
2019-05-22T14:56:10.394Z,39.48
2019-05-22T15:01:14.165Z,41.84
2019-05-22T15:06:20.943Z,40.88
2019-05-22T15:11:26.504Z,40.93
2019-05-22T15:16:32.942Z,42.23
2019-05-22T15:21:38.622Z,41.73
2019-05-22T15:26:44.144Z,42.46
2019-05-22T15:31:49.559Z,42.27
2019-05-22T15:36:55.468Z,41.25
2019-05-22T15:42:05.065Z,39.39
2019-05-22T15:47:11.146Z,41.70
2019-05-22T15:52:19.880Z,40.17
2019-05-22T15:57:26.648Z,41.24
2019-05-22T16:02:33.787Z,40.93
2019-05-22T16:07:40.368Z,42.81
2019-05-22T16:12:47.347Z,46.78
2019-05-22T16:18:10.337Z,50.37
2019-05-22T16:23:04.259Z,51.57
2019-05-22T16:28:10.731Z,50.85
2019-05-22T16:33:17.485Z,47.02
2019-05-22T16:38:24.648Z,42.09
2019-05-22T16:43:47.371Z,41.72
2019-05-22T16:48:38.712Z,40.89
2019-05-22T16:53:47.030Z,40.02
2019-05-22T16:58:53.078Z,40.29
2019-05-22T17:04:01.602Z,42.13
2019-05-22T17:09:10.005Z,42.93
2019-05-22T17:14:17.461Z,46.78
2019-05-22T17:19:27.434Z,48.12
2019-05-22T17:24:34.011Z,51.96
2019-05-22T17:29:37.634Z,55.26
2019-05-22T17:34:43.109Z,57.39
2019-05-22T17:39:50.887Z,59.04
2019-05-22T17:44:57.621Z,60.39
2019-05-22T17:50:03.978Z,60.38
2019-05-22T17:55:10.497Z,61.78
2019-05-22T18:00:18.819Z,63.36
2019-05-22T18:05:25.904Z,64.00
2019-05-22T18:10:34.062Z,65.28
2019-05-22T18:15:40.209Z,65.83
2019-05-22T18:20:47.769Z,66.08
2019-05-22T18:25:52.670Z,66.40
2019-05-22T18:30:58.437Z,67.81
2019-05-22T18:36:03.775Z,68.80
2019-05-22T18:41:09.025Z,69.58
2019-05-22T18:46:14.933Z,70.69
2019-05-22T18:51:20.537Z,71.12
2019-05-22T18:56:26.038Z,71.41
2019-05-22T19:01:31.715Z,71.56
2019-05-22T19:06:37.084Z,71.95
2019-05-22T19:11:42.823Z,72.11
2019-05-22T19:16:48.222Z,72.54
2019-05-22T19:21:53.805Z,72.80
2019-05-22T19:26:59.449Z,72.89
2019-05-22T19:32:04.772Z,72.80
2019-05-22T19:37:10.142Z,72.89
2019-05-22T19:42:16.291Z,72.78
2019-05-22T19:47:23.469Z,71.87
2019-05-22T19:52:41.012Z,71.49
2019-05-22T19:57:37.331Z,71.05
2019-05-22T20:02:44.098Z,71.31
2019-05-22T20:07:49.658Z,72.55
2019-05-22T20:12:56.161Z,72.52
2019-05-22T20:18:02.405Z,72.94
2019-05-22T20:23:08.516Z,73.98
2019-05-22T20:28:15.155Z,73.56
2019-05-22T20:33:20.774Z,73.54
2019-05-22T20:38:26.932Z,73.21
2019-05-22T20:43:33.434Z,72.69
2019-05-22T20:48:38.879Z,72.63
2019-05-22T20:53:54.155Z,72.93
2019-05-22T20:58:53.692Z,72.85
2019-05-22T21:04:03.850Z,73.12
2019-05-22T21:09:09.377Z,73.73
2019-05-22T21:14:15.740Z,73.59
2019-05-22T21:19:23.678Z,74.31
2019-05-22T21:24:30.106Z,74.95
2019-05-22T21:29:35.720Z,75.03
2019-05-22T21:34:42.057Z,74.67
2019-05-22T21:39:47.908Z,74.64
2019-05-22T21:44:53.348Z,75.29
2019-05-22T21:49:58.762Z,75.91
2019-05-22T21:55:08.820Z,75.88
2019-05-22T22:00:34.990Z,76.66
2019-05-22T22:05:42.784Z,77.04
2019-05-22T22:10:50.086Z,77.38
2019-05-22T22:15:55.928Z,77.88
2019-05-22T22:21:01.529Z,77.98
2019-05-22T22:26:24.059Z,78.09
2019-05-22T22:31:17.116Z,78.00
2019-05-22T22:36:22.984Z,78.08
2019-05-22T22:41:28.313Z,78.23
2019-05-22T22:46:38.490Z,78.56
2019-05-22T22:51:44.613Z,78.93
2019-05-22T22:56:49.772Z,78.91
2019-05-22T23:01:57.584Z,78.53
2019-05-22T23:07:06.235Z,78.72
2019-05-22T23:12:14.171Z,78.62
2019-05-22T23:17:20.959Z,78.95
2019-05-22T23:22:26.723Z,78.83
2019-05-22T23:27:33.614Z,79.12
2019-05-22T23:32:41.501Z,79.39
2019-05-22T23:37:46.817Z,79.24
2019-05-22T23:42:52.701Z,79.65
2019-05-22T23:48:05.819Z,79.79
2019-05-22T23:53:12.574Z,79.51
2019-05-22T23:58:19.673Z,79.47
